createdAt,value
2023-03-28T00:00:09.944Z,100854.78
2023-03-28T00:00:41.450Z,100861.88
2023-03-28T00:01:12.982Z,100865.69
2023-03-28T00:01:44.510Z,100861.06
2023-03-28T00:02:15.981Z,100869.22
2023-03-28T00:02:47.537Z,100869.50
2023-03-28T00:03:19.314Z,100867.59
2023-03-28T00:03:51.017Z,100867.59
2023-03-28T00:04:22.449Z,100867.59
2023-03-28T00:04:56.702Z,100862.97
2023-03-28T00:05:30.096Z,100865.13
2023-03-28T00:06:01.810Z,100870.56
2023-03-28T00:06:33.605Z,100866.78
2023-03-28T00:07:05.049Z,100866.50
2023-03-28T00:07:36.580Z,100868.97
2023-03-28T00:08:08.053Z,100857.22
2023-03-28T00:08:39.640Z,100870.59
2023-03-28T00:09:11.091Z,100869.53
2023-03-28T00:09:42.792Z,100865.94
2023-03-28T00:10:14.234Z,100867.31
2023-03-28T00:10:48.392Z,100865.94
2023-03-28T00:11:20.409Z,100872.78
2023-03-28T00:11:52.310Z,100864.31
2023-03-28T00:12:23.730Z,100869.78
2023-03-28T00:12:55.276Z,100865.69
2023-03-28T00:13:26.695Z,100868.41
2023-03-28T00:13:58.513Z,100873.59
2023-03-28T00:14:30.068Z,100867.84
2023-03-28T00:15:04.378Z,100866.50
2023-03-28T00:15:38.719Z,100868.38
2023-03-28T00:16:10.320Z,100872.22
2023-03-28T00:16:41.852Z,100871.38
2023-03-28T00:17:13.475Z,100867.28
2023-03-28T00:17:44.994Z,100868.91
2023-03-28T00:18:16.552Z,100872.47
2023-03-28T00:18:47.996Z,100876.03
2023-03-28T00:19:19.556Z,100869.78
2023-03-28T00:19:53.553Z,100870.06
2023-03-28T00:20:24.970Z,100871.69
2023-03-28T00:20:56.403Z,100871.66
2023-03-28T00:21:28.148Z,100870.56
2023-03-28T00:21:59.597Z,100869.19
2023-03-28T00:22:31.175Z,100871.09
2023-03-28T00:23:02.571Z,100873.00
2023-03-28T00:23:33.976Z,100869.47
2023-03-28T00:24:05.400Z,100871.66
2023-03-28T00:24:39.949Z,100875.75
2023-03-28T00:25:11.362Z,100874.66
2023-03-28T00:25:42.891Z,100876.81
2023-03-28T00:26:14.366Z,100875.47
2023-03-28T00:26:45.906Z,100878.47
2023-03-28T00:27:17.378Z,100871.63
2023-03-28T00:27:48.956Z,100876.00
2023-03-28T00:28:20.381Z,100880.63
2023-03-28T00:28:54.850Z,100880.09
2023-03-28T00:29:26.393Z,100876.56
2023-03-28T00:30:00.333Z,100877.13
2023-03-28T00:30:31.805Z,100871.66
2023-03-28T00:31:03.345Z,100873.56
2023-03-28T00:31:35.142Z,100877.41
2023-03-28T00:32:06.819Z,100876.56
2023-03-28T00:32:38.415Z,100877.41
2023-03-28T00:33:09.887Z,100877.13
2023-03-28T00:33:41.450Z,100878.50
2023-03-28T00:34:12.900Z,100876.56
2023-03-28T00:34:44.411Z,100879.03
2023-03-28T00:35:15.877Z,100874.38
2023-03-28T00:35:47.432Z,100871.38
2023-03-28T00:36:18.981Z,100877.66
2023-03-28T00:36:50.562Z,100874.91
2023-03-28T00:37:22.005Z,100879.03
2023-03-28T00:37:53.617Z,100875.47
2023-03-28T00:38:25.130Z,100881.47
2023-03-28T00:38:56.724Z,100884.44
2023-03-28T00:39:28.135Z,100880.91
2023-03-28T00:39:59.698Z,100879.00
2023-03-28T00:40:31.148Z,100883.09
2023-03-28T00:41:02.720Z,100882.28
2023-03-28T00:41:34.182Z,100882.81
2023-03-28T00:42:05.713Z,100880.38
2023-03-28T00:42:37.149Z,100883.91
2023-03-28T00:43:08.830Z,100885.56
2023-03-28T00:43:40.274Z,100879.00
2023-03-28T00:44:11.776Z,100882.53
2023-03-28T00:44:43.350Z,100883.38
2023-03-28T00:45:14.947Z,100886.09
2023-03-28T00:45:50.770Z,100890.47
2023-03-28T00:46:30.689Z,100883.94
2023-03-28T00:47:02.185Z,100883.66
2023-03-28T00:47:33.673Z,100885.03
2023-03-28T00:48:05.298Z,100891.31
2023-03-28T00:48:36.872Z,100887.72
2023-03-28T00:49:08.271Z,100889.63
2023-03-28T00:49:39.768Z,100886.94
2023-03-28T00:50:11.225Z,100894.06
2023-03-28T00:50:42.675Z,100887.22
2023-03-28T00:51:17.281Z,100883.13
2023-03-28T00:51:48.708Z,100889.69
2023-03-28T00:52:20.373Z,100886.94
2023-03-28T00:52:51.746Z,100892.41
2023-03-28T00:53:23.238Z,100888.56
2023-03-28T00:53:56.695Z,100890.22
2023-03-28T00:54:28.102Z,100884.75
2023-03-28T00:54:59.627Z,100886.66
2023-03-28T00:55:31.091Z,100887.47
2023-03-28T00:56:02.598Z,100885.81
2023-03-28T00:56:34.130Z,100888.03
2023-03-28T00:57:05.603Z,100883.13
2023-03-28T00:57:38.576Z,100883.66
2023-03-28T00:58:10.081Z,100882.59
2023-03-28T00:58:41.569Z,100877.69
2023-03-28T00:59:13.042Z,100881.22
2023-03-28T00:59:44.532Z,100886.66
2023-03-28T01:00:16.028Z,100882.00
2023-03-28T01:00:47.510Z,100882.56
2023-03-28T01:01:19.024Z,100883.13
2023-03-28T01:01:50.787Z,100881.47
2023-03-28T01:02:22.266Z,100883.38
2023-03-28T01:02:53.898Z,100884.75
2023-03-28T01:03:25.497Z,100884.44
2023-03-28T01:03:57.202Z,100882.00
2023-03-28T01:04:28.646Z,100886.66
2023-03-28T01:05:00.207Z,100886.34
2023-03-28T01:05:31.649Z,100884.47
2023-03-28T01:06:03.125Z,100882.84
2023-03-28T01:06:34.525Z,100880.41
2023-03-28T01:07:09.251Z,100876.59
2023-03-28T01:07:40.631Z,100881.22
2023-03-28T01:08:12.123Z,100877.69
2023-03-28T01:08:43.513Z,100880.97
2023-03-28T01:09:15.116Z,100876.31
2023-03-28T01:09:46.559Z,100880.44
2023-03-28T01:10:18.061Z,100884.50
2023-03-28T01:10:49.507Z,100880.69
2023-03-28T01:11:21.037Z,100882.03
2023-03-28T01:11:52.548Z,100875.47
2023-03-28T01:12:24.199Z,100880.38
2023-03-28T01:12:55.640Z,100879.03
2023-03-28T01:13:27.152Z,100878.47
2023-03-28T01:13:58.708Z,100869.72
2023-03-28T01:14:30.378Z,100877.91
2023-03-28T01:15:05.301Z,100873.53
2023-03-28T01:15:36.789Z,100876.81
2023-03-28T01:16:08.371Z,100875.19
2023-03-28T01:16:39.919Z,100872.47
2023-03-28T01:17:11.341Z,100866.50
2023-03-28T01:17:42.775Z,100877.66
2023-03-28T01:18:14.193Z,100876.03
2023-03-28T01:18:45.685Z,100872.19
2023-03-28T01:19:17.107Z,100873.84
2023-03-28T01:19:48.703Z,100876.56
2023-03-28T01:20:20.114Z,100871.13
2023-03-28T01:20:51.631Z,100877.41
2023-03-28T01:21:23.139Z,100876.88
2023-03-28T01:21:54.697Z,100875.75
2023-03-28T01:22:26.094Z,100882.56
2023-03-28T01:22:57.905Z,100884.75
2023-03-28T01:23:29.598Z,100878.50
2023-03-28T01:24:10.987Z,100876.31
2023-03-28T01:24:43.886Z,100873.31
2023-03-28T01:25:15.306Z,100877.13
2023-03-28T01:25:46.829Z,100874.69
2023-03-28T01:26:18.223Z,100879.31
2023-03-28T01:26:49.833Z,100876.56
2023-03-28T01:27:21.247Z,100880.94
2023-03-28T01:27:52.669Z,100879.03
2023-03-28T01:28:24.093Z,100881.50
2023-03-28T01:28:55.561Z,100878.50
2023-03-28T01:29:27.028Z,100875.78
2023-03-28T01:29:58.490Z,100874.97
2023-03-28T01:30:29.936Z,100877.69
2023-03-28T01:31:04.322Z,100877.41
2023-03-28T01:31:35.849Z,100878.25
2023-03-28T01:32:07.378Z,100877.69
2023-03-28T01:32:38.852Z,100877.16
2023-03-28T01:33:10.627Z,100877.16
2023-03-28T01:33:42.073Z,100878.78
2023-03-28T01:34:13.701Z,100885.34
2023-03-28T01:34:45.166Z,100874.41
2023-03-28T01:35:16.699Z,100878.25
2023-03-28T01:35:51.152Z,100875.50
2023-03-28T01:36:34.319Z,100881.22
2023-03-28T01:37:07.190Z,100882.84
2023-03-28T01:37:38.668Z,100879.56
2023-03-28T01:38:15.735Z,100880.38
2023-03-28T01:38:47.153Z,100877.66
2023-03-28T01:39:18.632Z,100883.09
2023-03-28T01:39:50.047Z,100877.09
2023-03-28T01:40:21.496Z,100878.47
2023-03-28T01:40:53.032Z,100880.63
2023-03-28T01:41:24.425Z,100876.00
2023-03-28T01:41:55.996Z,100878.47
2023-03-28T01:42:27.471Z,100880.63
2023-03-28T01:43:01.541Z,100884.75
2023-03-28T01:43:33.065Z,100880.66
2023-03-28T01:44:04.538Z,100884.22
2023-03-28T01:44:38.812Z,100887.75
2023-03-28T01:45:10.302Z,100885.31
2023-03-28T01:45:41.761Z,100881.47
2023-03-28T01:46:13.335Z,100880.09
2023-03-28T01:46:45.070Z,100880.94
2023-03-28T01:47:16.541Z,100888.03
2023-03-28T01:47:48.032Z,100885.84
2023-03-28T01:48:19.526Z,100886.13
2023-03-28T01:48:50.994Z,100884.50
2023-03-28T01:49:22.520Z,100886.13
2023-03-28T01:49:54.245Z,100876.56
2023-03-28T01:50:25.672Z,100882.84
2023-03-28T01:50:57.175Z,100885.31
2023-03-28T01:51:34.250Z,100886.94
2023-03-28T01:52:05.821Z,100886.66
2023-03-28T01:52:37.267Z,100883.97
2023-03-28T01:53:08.727Z,100887.78
2023-03-28T01:53:40.214Z,100883.69
2023-03-28T01:54:11.702Z,100883.69
2023-03-28T01:54:43.163Z,100888.88
2023-03-28T01:55:14.625Z,100880.16
2023-03-28T01:55:46.080Z,100888.06
2023-03-28T01:56:17.506Z,100886.41
2023-03-28T01:56:49.251Z,100884.78
2023-03-28T01:57:20.930Z,100887.50
2023-03-28T01:57:52.429Z,100880.97
2023-03-28T01:58:23.952Z,100887.25
2023-03-28T01:58:55.411Z,100893.22
2023-03-28T01:59:27.038Z,100883.13
2023-03-28T01:59:58.540Z,100887.25
2023-03-28T02:00:38.560Z,100883.69
2023-03-28T02:01:10.076Z,100885.34
2023-03-28T02:01:41.546Z,100882.88
2023-03-28T02:02:13.163Z,100880.16
2023-03-28T02:02:44.728Z,100879.84
2023-03-28T02:03:16.434Z,100878.75
2023-03-28T02:03:47.902Z,100885.84
2023-03-28T02:04:20.522Z,100886.09
2023-03-28T02:04:52.576Z,100877.66
2023-03-28T02:05:28.671Z,100882.28
2023-03-28T02:06:00.244Z,100877.66
2023-03-28T02:06:31.985Z,100882.28
2023-03-28T02:07:03.618Z,100874.91
2023-03-28T02:07:37.664Z,100884.47
2023-03-28T02:08:09.075Z,100884.75
2023-03-28T02:08:40.604Z,100883.66
2023-03-28T02:09:12.058Z,100880.66
2023-03-28T02:09:43.649Z,100879.56
2023-03-28T02:10:15.171Z,100877.94
2023-03-28T02:10:46.792Z,100880.94
2023-03-28T02:11:18.220Z,100879.84
2023-03-28T02:11:49.789Z,100880.41
2023-03-28T02:12:21.218Z,100876.31
2023-03-28T02:12:52.968Z,100880.41
2023-03-28T02:13:24.413Z,100878.78
2023-03-28T02:13:56.070Z,100882.59
2023-03-28T02:14:27.509Z,100871.69
2023-03-28T02:14:59.063Z,100877.41
2023-03-28T02:15:30.455Z,100876.03
2023-03-28T02:16:02.230Z,100874.94
2023-03-28T02:16:34.126Z,100875.47
2023-03-28T02:17:05.958Z,100878.19
2023-03-28T02:17:37.450Z,100874.09
2023-03-28T02:18:08.908Z,100876.03
2023-03-28T02:18:40.328Z,100873.84
2023-03-28T02:19:11.802Z,100876.03
2023-03-28T02:19:43.323Z,100869.78
2023-03-28T02:20:14.811Z,100873.88
2023-03-28T02:20:46.252Z,100868.69
2023-03-28T02:21:17.656Z,100872.75
2023-03-28T02:21:49.181Z,100866.22
2023-03-28T02:22:20.701Z,100870.84
2023-03-28T02:22:52.254Z,100874.13
2023-03-28T02:23:23.731Z,100868.16
2023-03-28T02:23:55.215Z,100866.22
2023-03-28T02:24:26.620Z,100862.94
2023-03-28T02:24:58.037Z,100870.56
2023-03-28T02:25:29.587Z,100862.38
2023-03-28T02:26:01.265Z,100864.84
2023-03-28T02:26:32.954Z,100864.56
2023-03-28T02:27:04.514Z,100865.66
2023-03-28T02:27:35.948Z,100867.03
2023-03-28T02:28:07.434Z,100865.94
2023-03-28T02:28:38.869Z,100863.50
2023-03-28T02:29:10.319Z,100869.78
2023-03-28T02:29:41.830Z,100866.78
2023-03-28T02:30:13.233Z,100860.22
2023-03-28T02:30:44.745Z,100858.59
2023-03-28T02:31:16.178Z,100862.97
2023-03-28T02:31:47.798Z,100863.78
2023-03-28T02:32:19.333Z,100854.22
2023-03-28T02:32:50.888Z,100854.78
2023-03-28T02:33:22.365Z,100862.66
2023-03-28T02:33:53.928Z,100859.94
2023-03-28T02:34:25.354Z,100856.41
2023-03-28T02:34:56.913Z,100858.03
2023-03-28T02:35:28.429Z,100853.94
2023-03-28T02:36:00.181Z,100857.47
2023-03-28T02:36:34.563Z,100854.47
2023-03-28T02:37:06.297Z,100853.38
2023-03-28T02:37:37.798Z,100852.53
2023-03-28T02:38:09.319Z,100853.38
2023-03-28T02:38:43.728Z,100859.09
2023-03-28T02:39:15.243Z,100856.38
2023-03-28T02:39:46.622Z,100861.03
2023-03-28T02:40:18.098Z,100852.84
2023-03-28T02:40:49.540Z,100855.56
2023-03-28T02:41:21.077Z,100851.22
2023-03-28T02:41:52.544Z,100856.66
2023-03-28T02:42:24.065Z,100853.94
2023-03-28T02:42:55.651Z,100854.75
2023-03-28T02:43:27.128Z,100849.28
2023-03-28T02:44:00.367Z,100853.94
2023-03-28T02:44:31.855Z,100850.69
2023-03-28T02:45:08.826Z,100853.13
2023-03-28T02:45:40.359Z,100852.31
2023-03-28T02:46:11.938Z,100855.59
2023-03-28T02:46:43.450Z,100856.94
2023-03-28T02:47:14.928Z,100855.31
2023-03-28T02:47:46.403Z,100849.59
2023-03-28T02:48:17.960Z,100855.56
2023-03-28T02:48:49.375Z,100851.50
2023-03-28T02:49:20.806Z,100850.69
2023-03-28T02:49:52.336Z,100846.31
2023-03-28T02:50:25.049Z,100862.13
2023-03-28T02:50:56.478Z,100853.94
2023-03-28T02:51:28.050Z,100852.00
2023-03-28T02:51:59.492Z,100853.66
2023-03-28T02:52:30.982Z,100853.66
2023-03-28T02:53:02.444Z,100852.00
2023-03-28T02:53:34.031Z,100849.84
2023-03-28T02:54:05.420Z,100856.94
2023-03-28T02:54:36.943Z,100860.22
2023-03-28T02:55:11.481Z,100863.75
2023-03-28T02:55:43.068Z,100855.88
2023-03-28T02:56:14.502Z,100853.13
2023-03-28T02:56:45.991Z,100868.41
2023-03-28T02:57:17.481Z,100860.75
2023-03-28T02:57:48.925Z,100861.31
2023-03-28T02:58:22.929Z,100865.16
2023-03-28T02:58:54.445Z,100858.06
2023-03-28T02:59:25.855Z,100856.94
2023-03-28T02:59:57.428Z,100859.13
2023-03-28T03:00:28.938Z,100856.41
2023-03-28T03:01:00.475Z,100855.84
2023-03-28T03:01:34.611Z,100858.59
2023-03-28T03:02:06.086Z,100850.13
2023-03-28T03:02:37.656Z,100856.94
2023-03-28T03:03:09.570Z,100851.50
2023-03-28T03:03:43.812Z,100849.31
2023-03-28T03:04:15.603Z,100853.13
2023-03-28T03:04:47.034Z,100847.94
2023-03-28T03:05:18.544Z,100851.47
2023-03-28T03:05:49.999Z,100853.66
2023-03-28T03:06:21.506Z,100852.84
2023-03-28T03:06:52.950Z,100853.38
2023-03-28T03:07:24.573Z,100855.81
2023-03-28T03:07:56.000Z,100852.00
2023-03-28T03:08:27.465Z,100857.47
2023-03-28T03:08:58.973Z,100856.91
2023-03-28T03:09:30.719Z,100858.28
2023-03-28T03:10:02.226Z,100852.53
2023-03-28T03:10:33.756Z,100853.63
2023-03-28T03:11:05.191Z,100853.09
2023-03-28T03:11:36.641Z,100852.00
2023-03-28T03:12:08.152Z,100850.09
2023-03-28T03:12:39.615Z,100852.53
2023-03-28T03:13:11.175Z,100849.56
2023-03-28T03:13:42.560Z,100853.09
2023-03-28T03:14:14.174Z,100858.28
2023-03-28T03:14:45.699Z,100852.28
2023-03-28T03:15:17.287Z,100849.56
2023-03-28T03:15:48.782Z,100852.84
2023-03-28T03:16:20.383Z,100847.94
2023-03-28T03:16:51.921Z,100849.84
2023-03-28T03:17:23.466Z,100845.22
2023-03-28T03:17:54.941Z,100847.13
2023-03-28T03:18:26.471Z,100847.13
2023-03-28T03:18:57.944Z,100841.66
2023-03-28T03:19:29.478Z,100838.94
2023-03-28T03:20:01.030Z,100846.31
2023-03-28T03:20:32.560Z,100843.31
2023-03-28T03:21:04.052Z,100842.50
2023-03-28T03:21:35.643Z,100847.13
2023-03-28T03:22:07.065Z,100842.75
2023-03-28T03:22:38.621Z,100839.75
2023-03-28T03:23:10.111Z,100850.41
2023-03-28T03:23:44.394Z,100842.50
2023-03-28T03:24:15.847Z,100844.94
2023-03-28T03:24:47.228Z,100844.94
2023-03-28T03:25:18.805Z,100846.03
2023-03-28T03:25:50.208Z,100850.69
2023-03-28T03:26:21.643Z,100841.13
2023-03-28T03:26:53.093Z,100849.84
2023-03-28T03:27:24.529Z,100843.84
2023-03-28T03:27:56.008Z,100842.22
2023-03-28T03:28:27.428Z,100846.03
2023-03-28T03:28:58.935Z,100846.31
2023-03-28T03:29:39.122Z,100843.31
2023-03-28T03:30:11.186Z,100852.31
2023-03-28T03:30:42.724Z,100846.03
2023-03-28T03:31:17.050Z,100843.31
2023-03-28T03:31:48.644Z,100849.56
2023-03-28T03:32:20.247Z,100851.75
2023-03-28T03:32:51.698Z,100852.31
2023-03-28T03:33:23.247Z,100853.13
2023-03-28T03:33:54.682Z,100857.19
2023-03-28T03:34:26.211Z,100849.84
2023-03-28T03:34:57.716Z,100849.56
2023-03-28T03:35:29.308Z,100851.22
2023-03-28T03:36:00.946Z,100851.47
2023-03-28T03:36:32.770Z,100843.84
2023-03-28T03:37:04.221Z,100849.28
2023-03-28T03:37:35.639Z,100851.47
2023-03-28T03:38:07.201Z,100849.31
2023-03-28T03:38:38.594Z,100855.81
2023-03-28T03:39:10.030Z,100851.75
2023-03-28T03:39:41.547Z,100856.38
2023-03-28T03:40:12.953Z,100848.47
2023-03-28T03:40:44.548Z,100851.47
2023-03-28T03:41:16.087Z,100852.00
2023-03-28T03:41:47.570Z,100856.09
2023-03-28T03:42:18.996Z,100854.19
2023-03-28T03:42:50.574Z,100855.81
2023-03-28T03:43:22.038Z,100850.91
2023-03-28T03:43:53.508Z,100860.72
2023-03-28T03:44:24.927Z,100850.88
2023-03-28T03:44:56.367Z,100862.63
2023-03-28T03:45:27.924Z,100852.53
2023-03-28T03:45:59.636Z,100852.25
2023-03-28T03:46:31.283Z,100857.72
2023-03-28T03:47:02.802Z,100852.81
2023-03-28T03:47:34.287Z,100854.16
2023-03-28T03:48:05.941Z,100855.00
2023-03-28T03:48:37.459Z,100850.88
2023-03-28T03:49:20.279Z,100852.53
2023-03-28T03:49:51.717Z,100850.06
2023-03-28T03:50:23.145Z,100848.16
2023-03-28T03:50:54.605Z,100854.69
2023-03-28T03:51:26.017Z,100850.88
2023-03-28T03:51:57.474Z,100847.34
2023-03-28T03:52:28.868Z,100848.16
2023-03-28T03:53:00.437Z,100849.81
2023-03-28T03:53:31.888Z,100858.81
2023-03-28T03:54:03.324Z,100856.91
2023-03-28T03:54:36.213Z,100851.97
2023-03-28T03:55:09.478Z,100854.44
2023-03-28T03:55:41.070Z,100851.97
2023-03-28T03:56:12.648Z,100852.78
2023-03-28T03:56:44.107Z,100855.25
2023-03-28T03:57:15.629Z,100858.81
2023-03-28T03:57:47.109Z,100851.44
2023-03-28T03:58:18.692Z,100862.34
2023-03-28T03:58:52.013Z,100859.06
2023-03-28T03:59:23.449Z,100855.25
2023-03-28T03:59:54.943Z,100856.91
2023-03-28T04:00:26.405Z,100858.25
2023-03-28T04:00:57.835Z,100862.63
2023-03-28T04:01:29.250Z,100857.72
2023-03-28T04:02:00.763Z,100863.16
2023-03-28T04:02:32.384Z,100856.34
2023-03-28T04:03:03.945Z,100855.25
2023-03-28T04:03:35.554Z,100857.16
2023-03-28T04:04:07.146Z,100862.88
2023-03-28T04:04:38.654Z,100855.25
2023-03-28T04:05:10.068Z,100856.06
2023-03-28T04:05:41.503Z,100855.78
2023-03-28T04:06:13.119Z,100859.88
2023-03-28T04:06:44.544Z,100859.63
2023-03-28T04:07:16.012Z,100864.00
2023-03-28T04:07:47.520Z,100864.81
2023-03-28T04:08:18.986Z,100864.00
2023-03-28T04:08:50.523Z,100863.16
2023-03-28T04:09:22.011Z,100867.50
2023-03-28T04:09:53.469Z,100862.31
2023-03-28T04:10:24.935Z,100869.69
2023-03-28T04:10:56.422Z,100863.41
2023-03-28T04:11:27.969Z,100868.34
2023-03-28T04:11:59.392Z,100870.78
2023-03-28T04:12:30.841Z,100868.34
2023-03-28T04:13:02.332Z,100874.59
2023-03-28T04:13:33.816Z,100873.25
2023-03-28T04:14:05.405Z,100873.25
2023-03-28T04:14:36.870Z,100872.44
2023-03-28T04:15:08.408Z,100877.06
2023-03-28T04:15:39.839Z,100882.78
2023-03-28T04:16:11.409Z,100876.50
2023-03-28T04:16:42.949Z,100877.59
2023-03-28T04:17:16.832Z,100876.53
2023-03-28T04:17:48.316Z,100880.09
2023-03-28T04:18:22.016Z,100878.72
2023-03-28T04:18:53.551Z,100880.94
2023-03-28T04:19:25.040Z,100878.19
2023-03-28T04:19:56.588Z,100882.00
2023-03-28T04:20:28.011Z,100878.19
2023-03-28T04:20:59.553Z,100880.94
2023-03-28T04:21:31.024Z,100883.09
2023-03-28T04:22:02.593Z,100879.78
2023-03-28T04:22:34.024Z,100887.16
2023-03-28T04:23:06.020Z,100880.88
2023-03-28T04:23:37.770Z,100887.16
2023-03-28T04:24:09.223Z,100883.59
2023-03-28T04:24:40.724Z,100887.16
2023-03-28T04:25:12.226Z,100888.78
2023-03-28T04:25:44.058Z,100884.97
2023-03-28T04:26:18.273Z,100888.78
2023-03-28T04:26:49.765Z,100891.25
2023-03-28T04:27:21.207Z,100888.53
2023-03-28T04:27:52.639Z,100883.34
2023-03-28T04:28:24.231Z,100889.09
2023-03-28T04:28:55.619Z,100892.34
2023-03-28T04:29:27.172Z,100888.56
2023-03-28T04:29:58.612Z,100887.72
2023-03-28T04:30:30.206Z,100890.16
2023-03-28T04:31:01.706Z,100890.97
2023-03-28T04:31:33.314Z,100887.72
2023-03-28T04:32:06.347Z,100890.97
2023-03-28T04:32:37.877Z,100888.53
2023-03-28T04:33:09.545Z,100892.06
2023-03-28T04:33:41.294Z,100892.91
2023-03-28T04:34:12.717Z,100898.88
2023-03-28T04:34:44.242Z,100891.53
2023-03-28T04:35:15.689Z,100896.44
2023-03-28T04:35:47.184Z,100889.63
2023-03-28T04:36:18.838Z,100895.59
2023-03-28T04:36:50.375Z,100899.16
2023-03-28T04:37:21.803Z,100893.72
2023-03-28T04:37:53.279Z,100895.66
2023-03-28T04:38:24.793Z,100898.38
2023-03-28T04:38:56.332Z,100896.72
2023-03-28T04:39:27.868Z,100893.19
2023-03-28T04:39:59.332Z,100894.25
2023-03-28T04:40:30.883Z,100893.69
2023-03-28T04:41:02.335Z,100896.44
2023-03-28T04:41:33.906Z,100898.06
2023-03-28T04:42:05.518Z,100894.78
2023-03-28T04:42:37.047Z,100902.97
2023-03-28T04:43:08.459Z,100901.88
2023-03-28T04:43:40.000Z,100898.84
2023-03-28T04:44:11.540Z,100895.06
2023-03-28T04:44:43.046Z,100901.06
2023-03-28T04:45:17.146Z,100895.88
2023-03-28T04:45:49.453Z,100897.81
2023-03-28T04:46:21.169Z,100902.72
2023-03-28T04:46:52.743Z,100902.47
2023-03-28T04:47:24.208Z,100901.38
2023-03-28T04:47:55.697Z,100904.91
2023-03-28T04:48:27.193Z,100905.16
2023-03-28T04:48:58.672Z,100909.25
2023-03-28T04:49:31.042Z,100901.63
2023-03-28T04:50:02.485Z,100904.06
2023-03-28T04:50:35.734Z,100911.16
2023-03-28T04:51:07.565Z,100911.16
2023-03-28T04:51:39.016Z,100906.50
2023-03-28T04:52:10.634Z,100912.78
2023-03-28T04:52:42.087Z,100914.69
2023-03-28T04:53:13.571Z,100917.41
2023-03-28T04:53:44.971Z,100917.41
2023-03-28T04:54:16.583Z,100911.41
2023-03-28T04:54:48.139Z,100916.59
2023-03-28T04:55:19.879Z,100916.34
2023-03-28T04:55:51.399Z,100917.97
2023-03-28T04:56:22.803Z,100920.69
2023-03-28T04:56:57.014Z,100913.34
2023-03-28T04:57:28.504Z,100911.72
2023-03-28T04:57:59.996Z,100915.28
2023-03-28T04:58:31.438Z,100919.63
2023-03-28T04:59:02.892Z,100911.72
2023-03-28T04:59:34.547Z,100914.16
2023-03-28T05:00:07.114Z,100916.63
2023-03-28T05:00:38.506Z,100921.25
2023-03-28T05:01:09.950Z,100925.06
2023-03-28T05:01:41.351Z,100920.16
2023-03-28T05:02:13.064Z,100926.16
2023-03-28T05:02:44.651Z,100917.16
2023-03-28T05:03:16.244Z,100921.53
2023-03-28T05:03:47.880Z,100913.59
2023-03-28T05:04:19.291Z,100914.97
2023-03-28T05:04:50.730Z,100920.97
2023-03-28T05:05:22.255Z,100924.28
2023-03-28T05:05:53.710Z,100915.56
2023-03-28T05:06:25.170Z,100928.91
2023-03-28T05:06:56.600Z,100915.00
2023-03-28T05:07:28.108Z,100919.63
2023-03-28T05:07:59.698Z,100923.75
2023-03-28T05:08:31.350Z,100925.09
2023-03-28T05:09:02.808Z,100927.81
2023-03-28T05:09:36.758Z,100924.53
2023-03-28T05:10:08.276Z,100923.44
2023-03-28T05:10:39.793Z,100925.66
2023-03-28T05:11:11.334Z,100923.44
2023-03-28T05:11:42.773Z,100922.38
2023-03-28T05:12:14.240Z,100923.47
2023-03-28T05:12:45.763Z,100924.84
2023-03-28T05:13:17.414Z,100924.56
2023-03-28T05:13:48.788Z,100926.47
2023-03-28T05:14:20.275Z,100926.75
2023-03-28T05:14:51.730Z,100931.09
2023-03-28T05:15:23.379Z,100931.63
2023-03-28T05:15:55.125Z,100932.19
2023-03-28T05:16:26.685Z,100930.53
2023-03-28T05:16:58.118Z,100930.84
2023-03-28T05:17:29.674Z,100929.19
2023-03-28T05:18:01.208Z,100926.19
2023-03-28T05:18:32.782Z,100928.38
2023-03-28T05:19:04.165Z,100930.28
2023-03-28T05:19:35.535Z,100932.72
2023-03-28T05:20:07.060Z,100926.41
2023-03-28T05:20:38.493Z,100930.53
2023-03-28T05:21:10.033Z,100926.19
2023-03-28T05:21:41.513Z,100928.38
2023-03-28T05:22:13.073Z,100922.91
2023-03-28T05:22:44.478Z,100935.19
2023-03-28T05:23:15.908Z,100931.09
2023-03-28T05:23:51.651Z,100928.66
2023-03-28T05:24:23.801Z,100934.38
2023-03-28T05:24:55.408Z,100933.28
2023-03-28T05:25:26.902Z,100939.00
2023-03-28T05:25:58.351Z,100934.09
2023-03-28T05:26:29.936Z,100939.84
2023-03-28T05:27:03.857Z,100936.56
2023-03-28T05:27:35.350Z,100936.03
2023-03-28T05:28:06.758Z,100940.09
2023-03-28T05:28:38.273Z,100934.13
2023-03-28T05:29:09.762Z,100937.66
2023-03-28T05:29:41.369Z,100940.66
2023-03-28T05:30:12.814Z,100932.22
2023-03-28T05:30:44.306Z,100936.03
2023-03-28T05:31:15.810Z,100937.13
2023-03-28T05:31:47.376Z,100942.00
2023-03-28T05:32:18.931Z,100939.28
2023-03-28T05:32:50.568Z,100942.28
2023-03-28T05:33:21.997Z,100948.25
2023-03-28T05:33:53.522Z,100943.91
2023-03-28T05:34:24.963Z,100942.00
2023-03-28T05:34:56.511Z,100941.16
2023-03-28T05:35:27.965Z,100947.72
2023-03-28T05:35:59.403Z,100938.19
2023-03-28T05:36:30.922Z,100941.72
2023-03-28T05:37:02.343Z,100945.56
2023-03-28T05:37:33.904Z,100943.66
2023-03-28T05:38:05.346Z,100944.75
2023-03-28T05:38:36.891Z,100946.13
2023-03-28T05:39:08.335Z,100944.47
2023-03-28T05:39:39.881Z,100948.28
2023-03-28T05:40:11.364Z,100949.09
2023-03-28T05:40:42.809Z,100950.19
2023-03-28T05:41:14.344Z,100948.56
2023-03-28T05:41:45.799Z,100952.91
2023-03-28T05:42:17.230Z,100956.72
2023-03-28T05:42:48.695Z,100955.06
2023-03-28T05:43:20.240Z,100949.91
2023-03-28T05:43:51.641Z,100959.16
2023-03-28T05:44:23.085Z,100963.28
2023-03-28T05:44:54.630Z,100961.63
2023-03-28T05:45:26.081Z,100959.19
2023-03-28T05:45:57.691Z,100958.41
2023-03-28T05:46:29.205Z,100951.03
2023-03-28T05:47:00.616Z,100956.22
2023-03-28T05:47:32.050Z,100960.31
2023-03-28T05:48:03.732Z,100964.34
2023-03-28T05:48:35.277Z,100959.16
2023-03-28T05:49:06.750Z,100966.56
2023-03-28T05:49:38.171Z,100955.91
2023-03-28T05:50:09.750Z,100959.72
2023-03-28T05:50:41.141Z,100960.56
2023-03-28T05:51:12.696Z,100953.97
2023-03-28T05:51:44.097Z,100955.06
2023-03-28T05:52:15.723Z,100952.88
2023-03-28T05:52:47.164Z,100958.06
2023-03-28T05:53:18.697Z,100959.16
2023-03-28T05:53:50.169Z,100955.59
2023-03-28T05:54:21.735Z,100954.50
2023-03-28T05:54:53.141Z,100957.22
2023-03-28T05:55:24.706Z,100955.59
2023-03-28T05:55:56.113Z,100961.63
2023-03-28T05:56:27.548Z,100957.78
2023-03-28T05:56:59.162Z,100954.78
2023-03-28T05:57:33.599Z,100958.06
2023-03-28T05:58:05.155Z,100954.50
2023-03-28T05:58:36.582Z,100956.41
2023-03-28T05:59:08.121Z,100950.13
2023-03-28T05:59:39.565Z,100950.97
2023-03-28T06:00:11.104Z,100959.16
2023-03-28T06:00:42.650Z,100950.13
2023-03-28T06:01:14.195Z,100950.97
2023-03-28T06:01:45.706Z,100955.03
2023-03-28T06:02:17.208Z,100946.31
2023-03-28T06:02:48.799Z,100952.31